sensor_id;sensor_type;location;lat;lon;timestamp;P1;durP1;ratioP1;P2;durP2;ratioP2
59105;SDS011;44891;50.204;8.132;2022-08-19T00:01:11;30.60;;;21.73;;
59105;SDS011;44891;50.204;8.132;2022-08-19T00:05:15;30.65;;;21.23;;
59105;SDS011;44891;50.204;8.132;2022-08-19T00:09:18;32.45;;;20.73;;
59105;SDS011;44891;50.204;8.132;2022-08-19T00:13:21;29.25;;;20.65;;
59105;SDS011;44891;50.204;8.132;2022-08-19T00:17:23;31.08;;;20.27;;
59105;SDS011;44891;50.204;8.132;2022-08-19T00:21:27;29.00;;;19.75;;
59105;SDS011;44891;50.204;8.132;2022-08-19T00:25:29;31.45;;;21.70;;
59105;SDS011;44891;50.204;8.132;2022-08-19T00:29:31;33.58;;;21.50;;
59105;SDS011;44891;50.204;8.132;2022-08-19T00:33:33;32.38;;;20.98;;
59105;SDS011;44891;50.204;8.132;2022-08-19T00:37:37;30.92;;;21.13;;
59105;SDS011;44891;50.204;8.132;2022-08-19T00:41:44;28.50;;;20.38;;
59105;SDS011;44891;50.204;8.132;2022-08-19T00:45:48;31.10;;;21.05;;
59105;SDS011;44891;50.204;8.132;2022-08-19T00:49:51;28.95;;;19.73;;
59105;SDS011;44891;50.204;8.132;2022-08-19T00:53:58;27.23;;;20.15;;
59105;SDS011;44891;50.204;8.132;2022-08-19T00:58:04;31.13;;;21.42;;
59105;SDS011;44891;50.204;8.132;2022-08-19T01:02:09;36.28;;;23.40;;
59105;SDS011;44891;50.204;8.132;2022-08-19T01:06:11;36.47;;;23.95;;
59105;SDS011;44891;50.204;8.132;2022-08-19T01:10:16;34.30;;;22.45;;
59105;SDS011;44891;50.204;8.132;2022-08-19T01:14:21;36.85;;;23.65;;
59105;SDS011;44891;50.204;8.132;2022-08-19T01:18:23;33.70;;;22.83;;
59105;SDS011;44891;50.204;8.132;2022-08-19T01:22:29;33.08;;;22.50;;
59105;SDS011;44891;50.204;8.132;2022-08-19T01:26:37;30.90;;;21.80;;
59105;SDS011;44891;50.204;8.132;2022-08-19T01:30:42;34.97;;;22.05;;
59105;SDS011;44891;50.204;8.132;2022-08-19T01:34:44;34.63;;;22.45;;
59105;SDS011;44891;50.204;8.132;2022-08-19T01:38:48;31.73;;;22.25;;
59105;SDS011;44891;50.204;8.132;2022-08-19T01:42:51;29.77;;;21.00;;
59105;SDS011;44891;50.204;8.132;2022-08-19T01:46:54;32.03;;;21.20;;
59105;SDS011;44891;50.204;8.132;2022-08-19T01:50:57;30.50;;;21.63;;
59105;SDS011;44891;50.204;8.132;2022-08-19T01:55:00;30.95;;;21.17;;
59105;SDS011;44891;50.204;8.132;2022-08-19T01:59:03;31.67;;;22.52;;
59105;SDS011;44891;50.204;8.132;2022-08-19T02:03:11;31.20;;;21.17;;
59105;SDS011;44891;50.204;8.132;2022-08-19T02:07:13;27.30;;;19.73;;
59105;SDS011;44891;50.204;8.132;2022-08-19T02:11:20;29.10;;;20.25;;
59105;SDS011;44891;50.204;8.132;2022-08-19T02:15:24;26.17;;;19.05;;
59105;SDS011;44891;50.204;8.132;2022-08-19T02:19:26;31.80;;;20.75;;
59105;SDS011;44891;50.204;8.132;2022-08-19T02:23:28;30.10;;;20.98;;
59105;SDS011;44891;50.204;8.132;2022-08-19T02:27:31;29.80;;;21.13;;
59105;SDS011;44891;50.204;8.132;2022-08-19T02:31:34;33.20;;;21.83;;
59105;SDS011;44891;50.204;8.132;2022-08-19T02:35:36;28.75;;;20.30;;
59105;SDS011;44891;50.204;8.132;2022-08-19T02:39:38;30.88;;;19.30;;
59105;SDS011;44891;50.204;8.132;2022-08-19T02:43:41;28.23;;;20.30;;
59105;SDS011;44891;50.204;8.132;2022-08-19T02:47:44;28.45;;;19.83;;
59105;SDS011;44891;50.204;8.132;2022-08-19T02:51:46;27.83;;;20.45;;
59105;SDS011;44891;50.204;8.132;2022-08-19T02:55:48;28.13;;;19.83;;
59105;SDS011;44891;50.204;8.132;2022-08-19T02:59:52;27.35;;;20.05;;
59105;SDS011;44891;50.204;8.132;2022-08-19T03:03:55;29.60;;;19.90;;
59105;SDS011;44891;50.204;8.132;2022-08-19T03:07:58;26.40;;;19.20;;
59105;SDS011;44891;50.204;8.132;2022-08-19T03:12:00;26.38;;;19.38;;
59105;SDS011;44891;50.204;8.132;2022-08-19T03:16:05;32.45;;;20.70;;
59105;SDS011;44891;50.204;8.132;2022-08-19T03:20:08;28.23;;;19.40;;
59105;SDS011;44891;50.204;8.132;2022-08-19T03:24:11;30.00;;;20.67;;
59105;SDS011;44891;50.204;8.132;2022-08-19T03:28:14;27.13;;;20.27;;
59105;SDS011;44891;50.204;8.132;2022-08-19T03:32:18;29.95;;;20.33;;
59105;SDS011;44891;50.204;8.132;2022-08-19T03:36:21;28.63;;;20.35;;
59105;SDS011;44891;50.204;8.132;2022-08-19T03:40:25;30.13;;;20.30;;
59105;SDS011;44891;50.204;8.132;2022-08-19T03:44:27;26.35;;;19.13;;
59105;SDS011;44891;50.204;8.132;2022-08-19T03:48:32;29.50;;;21.15;;
59105;SDS011;44891;50.204;8.132;2022-08-19T03:52:34;31.75;;;20.83;;
59105;SDS011;44891;50.204;8.132;2022-08-19T03:56:37;29.92;;;20.17;;
59105;SDS011;44891;50.204;8.132;2022-08-19T04:00:41;28.98;;;20.88;;
59105;SDS011;44891;50.204;8.132;2022-08-19T04:04:45;29.48;;;20.95;;
59105;SDS011;44891;50.204;8.132;2022-08-19T04:08:48;30.63;;;20.60;;
59105;SDS011;44891;50.204;8.132;2022-08-19T04:12:51;29.33;;;19.83;;
59105;SDS011;44891;50.204;8.132;2022-08-19T04:16:53;27.38;;;19.77;;
59105;SDS011;44891;50.204;8.132;2022-08-19T04:20:57;28.77;;;20.35;;
59105;SDS011;44891;50.204;8.132;2022-08-19T04:24:59;28.15;;;20.88;;
59105;SDS011;44891;50.204;8.132;2022-08-19T04:29:03;27.67;;;19.35;;
59105;SDS011;44891;50.204;8.132;2022-08-19T04:33:06;32.20;;;21.45;;
59105;SDS011;44891;50.204;8.132;2022-08-19T04:37:10;27.73;;;19.60;;
59105;SDS011;44891;50.204;8.132;2022-08-19T04:41:13;29.60;;;20.92;;
59105;SDS011;44891;50.204;8.132;2022-08-19T04:45:33;27.42;;;18.80;;
59105;SDS011;44891;50.204;8.132;2022-08-19T04:49:38;28.75;;;20.42;;
59105;SDS011;44891;50.204;8.132;2022-08-19T04:53:42;28.58;;;19.50;;
59105;SDS011;44891;50.204;8.132;2022-08-19T04:57:44;25.65;;;18.88;;
59105;SDS011;44891;50.204;8.132;2022-08-19T05:01:46;29.25;;;19.75;;
59105;SDS011;44891;50.204;8.132;2022-08-19T05:05:50;28.95;;;19.90;;
59105;SDS011;44891;50.204;8.132;2022-08-19T05:09:54;28.95;;;20.20;;
59105;SDS011;44891;50.204;8.132;2022-08-19T05:13:56;31.10;;;21.20;;
59105;SDS011;44891;50.204;8.132;2022-08-19T05:17:59;29.35;;;20.17;;
59105;SDS011;44891;50.204;8.132;2022-08-19T05:22:19;27.70;;;20.98;;
59105;SDS011;44891;50.204;8.132;2022-08-19T05:26:37;25.80;;;19.08;;
59105;SDS011;44891;50.204;8.132;2022-08-19T05:30:40;30.42;;;20.52;;
59105;SDS011;44891;50.204;8.132;2022-08-19T05:34:45;30.73;;;21.42;;
59105;SDS011;44891;50.204;8.132;2022-08-19T05:38:47;29.45;;;20.40;;
59105;SDS011;44891;50.204;8.132;2022-08-19T05:42:52;30.92;;;20.88;;
59105;SDS011;44891;50.204;8.132;2022-08-19T05:46:54;32.28;;;20.70;;
59105;SDS011;44891;50.204;8.132;2022-08-19T05:50:56;28.70;;;20.52;;
59105;SDS011;44891;50.204;8.132;2022-08-19T05:54:59;30.20;;;20.42;;
59105;SDS011;44891;50.204;8.132;2022-08-19T05:59:02;28.92;;;20.00;;
59105;SDS011;44891;50.204;8.132;2022-08-19T06:03:04;29.23;;;19.85;;
59105;SDS011;44891;50.204;8.132;2022-08-19T06:07:06;27.83;;;19.38;;
59105;SDS011;44891;50.204;8.132;2022-08-19T06:11:12;32.80;;;21.70;;
59105;SDS011;44891;50.204;8.132;2022-08-19T06:15:18;28.30;;;21.15;;
59105;SDS011;44891;50.204;8.132;2022-08-19T06:19:21;26.60;;;19.45;;
59105;SDS011;44891;50.204;8.132;2022-08-19T06:23:24;28.55;;;20.00;;
59105;SDS011;44891;50.204;8.132;2022-08-19T06:27:27;28.27;;;19.73;;
59105;SDS011;44891;50.204;8.132;2022-08-19T06:31:34;28.05;;;19.00;;
59105;SDS011;44891;50.204;8.132;2022-08-19T06:35:38;26.77;;;19.02;;
59105;SDS011;44891;50.204;8.132;2022-08-19T06:39:41;27.63;;;19.25;;
59105;SDS011;44891;50.204;8.132;2022-08-19T06:43:45;24.10;;;17.77;;
59105;SDS011;44891;50.204;8.132;2022-08-19T06:47:52;26.23;;;18.05;;
59105;SDS011;44891;50.204;8.132;2022-08-19T06:51:54;25.50;;;16.90;;
59105;SDS011;44891;50.204;8.132;2022-08-19T06:55:57;22.45;;;17.42;;
59105;SDS011;44891;50.204;8.132;2022-08-19T07:00:03;23.67;;;16.10;;
59105;SDS011;44891;50.204;8.132;2022-08-19T07:04:09;24.80;;;16.35;;
59105;SDS011;44891;50.204;8.132;2022-08-19T07:08:11;23.08;;;15.65;;
59105;SDS011;44891;50.204;8.132;2022-08-19T07:12:14;25.50;;;15.50;;
59105;SDS011;44891;50.204;8.132;2022-08-19T07:16:17;21.85;;;15.52;;
59105;SDS011;44891;50.204;8.132;2022-08-19T07:20:22;19.67;;;14.18;;
59105;SDS011;44891;50.204;8.132;2022-08-19T07:24:25;22.27;;;14.70;;
59105;SDS011;44891;50.204;8.132;2022-08-19T07:28:28;17.10;;;13.25;;
59105;SDS011;44891;50.204;8.132;2022-08-19T07:32:32;19.80;;;13.20;;
59105;SDS011;44891;50.204;8.132;2022-08-19T07:36:36;18.23;;;13.05;;
59105;SDS011;44891;50.204;8.132;2022-08-19T07:40:41;22.92;;;14.70;;
59105;SDS011;44891;50.204;8.132;2022-08-19T07:44:44;25.42;;;15.75;;
59105;SDS011;44891;50.204;8.132;2022-08-19T07:48:47;24.63;;;16.13;;
59105;SDS011;44891;50.204;8.132;2022-08-19T07:52:52;28.10;;;17.85;;
59105;SDS011;44891;50.204;8.132;2022-08-19T07:56:54;21.45;;;14.88;;
59105;SDS011;44891;50.204;8.132;2022-08-19T08:00:57;18.23;;;13.77;;
59105;SDS011;44891;50.204;8.132;2022-08-19T08:04:59;21.42;;;13.80;;
59105;SDS011;44891;50.204;8.132;2022-08-19T08:09:21;20.63;;;14.18;;
59105;SDS011;44891;50.204;8.132;2022-08-19T08:13:25;18.75;;;13.85;;
59105;SDS011;44891;50.204;8.132;2022-08-19T08:17:28;19.00;;;14.30;;
59105;SDS011;44891;50.204;8.132;2022-08-19T08:21:31;17.13;;;13.05;;
59105;SDS011;44891;50.204;8.132;2022-08-19T08:25:35;22.02;;;14.88;;
59105;SDS011;44891;50.204;8.132;2022-08-19T08:29:38;20.90;;;15.93;;
59105;SDS011;44891;50.204;8.132;2022-08-19T08:33:41;24.63;;;17.73;;
59105;SDS011;44891;50.204;8.132;2022-08-19T08:37:44;34.50;;;23.20;;
59105;SDS011;44891;50.204;8.132;2022-08-19T08:41:49;31.85;;;20.25;;
59105;SDS011;44891;50.204;8.132;2022-08-19T08:45:59;35.60;;;22.88;;
59105;SDS011;44891;50.204;8.132;2022-08-19T08:50:04;30.15;;;20.70;;
59105;SDS011;44891;50.204;8.132;2022-08-19T08:54:10;33.40;;;22.92;;
59105;SDS011;44891;50.204;8.132;2022-08-19T08:58:17;38.35;;;24.75;;
59105;SDS011;44891;50.204;8.132;2022-08-19T09:02:25;34.65;;;24.05;;
59105;SDS011;44891;50.204;8.132;2022-08-19T09:06:29;38.05;;;24.65;;
59105;SDS011;44891;50.204;8.132;2022-08-19T09:10:38;38.17;;;24.27;;
59105;SDS011;44891;50.204;8.132;2022-08-19T09:14:45;30.85;;;22.48;;
59105;SDS011;44891;50.204;8.132;2022-08-19T09:18:52;33.10;;;23.02;;
59105;SDS011;44891;50.204;8.132;2022-08-19T09:22:58;30.55;;;21.45;;
59105;SDS011;44891;50.204;8.132;2022-08-19T09:27:00;31.58;;;19.58;;
59105;SDS011;44891;50.204;8.132;2022-08-19T09:31:04;27.45;;;20.40;;
59105;SDS011;44891;50.204;8.132;2022-08-19T09:35:07;31.58;;;20.17;;
59105;SDS011;44891;50.204;8.132;2022-08-19T09:39:09;28.40;;;19.45;;
59105;SDS011;44891;50.204;8.132;2022-08-19T09:43:12;27.52;;;19.70;;
59105;SDS011;44891;50.204;8.132;2022-08-19T09:47:15;25.45;;;20.00;;
59105;SDS011;44891;50.204;8.132;2022-08-19T09:51:19;22.45;;;17.65;;
59105;SDS011;44891;50.204;8.132;2022-08-19T09:55:22;21.75;;;15.48;;
59105;SDS011;44891;50.204;8.132;2022-08-19T09:59:25;20.40;;;16.10;;
59105;SDS011;44891;50.204;8.132;2022-08-19T10:03:29;20.40;;;15.07;;
59105;SDS011;44891;50.204;8.132;2022-08-19T10:07:32;20.42;;;15.32;;
59105;SDS011;44891;50.204;8.132;2022-08-19T10:11:35;20.25;;;14.38;;
59105;SDS011;44891;50.204;8.132;2022-08-19T10:15:38;15.30;;;12.77;;
59105;SDS011;44891;50.204;8.132;2022-08-19T10:19:42;19.88;;;15.05;;
59105;SDS011;44891;50.204;8.132;2022-08-19T10:23:45;16.30;;;13.77;;
59105;SDS011;44891;50.204;8.132;2022-08-19T10:27:50;16.90;;;14.57;;
59105;SDS011;44891;50.204;8.132;2022-08-19T10:31:53;17.33;;;14.88;;
59105;SDS011;44891;50.204;8.132;2022-08-19T10:35:59;15.65;;;12.90;;
59105;SDS011;44891;50.204;8.132;2022-08-19T10:40:03;15.65;;;12.65;;
59105;SDS011;44891;50.204;8.132;2022-08-19T10:44:07;13.48;;;11.85;;
59105;SDS011;44891;50.204;8.132;2022-08-19T10:48:10;13.52;;;11.98;;
59105;SDS011;44891;50.204;8.132;2022-08-19T10:52:14;13.45;;;10.75;;
59105;SDS011;44891;50.204;8.132;2022-08-19T10:56:35;11.40;;;9.65;;
59105;SDS011;44891;50.204;8.132;2022-08-19T11:00:57;13.15;;;11.20;;
59105;SDS011;44891;50.204;8.132;2022-08-19T11:05:00;11.00;;;9.90;;
59105;SDS011;44891;50.204;8.132;2022-08-19T11:09:04;9.63;;;8.63;;
59105;SDS011;44891;50.204;8.132;2022-08-19T11:13:06;10.23;;;9.18;;
59105;SDS011;44891;50.204;8.132;2022-08-19T11:17:08;9.77;;;8.77;;
59105;SDS011;44891;50.204;8.132;2022-08-19T11:21:12;10.20;;;9.30;;
59105;SDS011;44891;50.204;8.132;2022-08-19T11:25:18;9.80;;;8.80;;
59105;SDS011;44891;50.204;8.132;2022-08-19T11:29:21;12.95;;;8.70;;
59105;SDS011;44891;50.204;8.132;2022-08-19T11:33:26;11.15;;;8.88;;
59105;SDS011;44891;50.204;8.132;2022-08-19T11:37:28;8.48;;;7.68;;
59105;SDS011;44891;50.204;8.132;2022-08-19T11:41:31;10.23;;;9.23;;
59105;SDS011;44891;50.204;8.132;2022-08-19T11:45:34;9.18;;;8.25;;
59105;SDS011;44891;50.204;8.132;2022-08-19T11:49:36;9.20;;;8.30;;
59105;SDS011;44891;50.204;8.132;2022-08-19T11:53:38;9.77;;;8.48;;
59105;SDS011;44891;50.204;8.132;2022-08-19T11:57:42;11.02;;;8.98;;
59105;SDS011;44891;50.204;8.132;2022-08-19T12:01:44;12.02;;;8.57;;
59105;SDS011;44891;50.204;8.132;2022-08-19T12:05:46;8.38;;;7.57;;
59105;SDS011;44891;50.204;8.132;2022-08-19T12:09:49;8.05;;;6.95;;
59105;SDS011;44891;50.204;8.132;2022-08-19T12:13:53;8.48;;;7.57;;
59105;SDS011;44891;50.204;8.132;2022-08-19T12:17:56;8.60;;;7.68;;
59105;SDS011;44891;50.204;8.132;2022-08-19T12:21:59;8.35;;;7.10;;
59105;SDS011;44891;50.204;8.132;2022-08-19T12:26:03;7.50;;;6.80;;
59105;SDS011;44891;50.204;8.132;2022-08-19T12:30:08;8.82;;;6.60;;
59105;SDS011;44891;50.204;8.132;2022-08-19T12:34:13;7.85;;;6.65;;
59105;SDS011;44891;50.204;8.132;2022-08-19T12:38:16;6.63;;;5.95;;
59105;SDS011;44891;50.204;8.132;2022-08-19T12:42:18;8.57;;;7.80;;
59105;SDS011;44891;50.204;8.132;2022-08-19T12:46:23;10.43;;;8.90;;
59105;SDS011;44891;50.204;8.132;2022-08-19T12:50:26;10.10;;;8.90;;
59105;SDS011;44891;50.204;8.132;2022-08-19T12:54:29;11.23;;;8.80;;
59105;SDS011;44891;50.204;8.132;2022-08-19T12:58:31;11.55;;;10.35;;
59105;SDS011;44891;50.204;8.132;2022-08-19T13:02:36;10.85;;;9.75;;
59105;SDS011;44891;50.204;8.132;2022-08-19T13:06:39;12.27;;;11.00;;
59105;SDS011;44891;50.204;8.132;2022-08-19T13:10:41;13.75;;;11.70;;
59105;SDS011;44891;50.204;8.132;2022-08-19T13:14:43;12.73;;;11.52;;
59105;SDS011;44891;50.204;8.132;2022-08-19T13:18:52;13.30;;;11.95;;
59105;SDS011;44891;50.204;8.132;2022-08-19T13:22:54;12.70;;;11.50;;
59105;SDS011;44891;50.204;8.132;2022-08-19T13:26:58;11.82;;;10.73;;
59105;SDS011;44891;50.204;8.132;2022-08-19T13:31:00;12.30;;;11.10;;
59105;SDS011;44891;50.204;8.132;2022-08-19T13:35:33;11.50;;;10.35;;
59105;SDS011;44891;50.204;8.132;2022-08-19T13:39:35;11.70;;;10.13;;
59105;SDS011;44891;50.204;8.132;2022-08-19T13:43:37;11.23;;;9.98;;
59105;SDS011;44891;50.204;8.132;2022-08-19T13:47:39;10.65;;;9.55;;
59105;SDS011;44891;50.204;8.132;2022-08-19T13:51:46;11.55;;;10.43;;
59105;SDS011;44891;50.204;8.132;2022-08-19T13:55:48;11.15;;;10.05;;
59105;SDS011;44891;50.204;8.132;2022-08-19T13:59:51;10.23;;;9.20;;
59105;SDS011;44891;50.204;8.132;2022-08-19T14:03:53;10.30;;;9.30;;
59105;SDS011;44891;50.204;8.132;2022-08-19T14:07:57;9.43;;;8.43;;
59105;SDS011;44891;50.204;8.132;2022-08-19T14:11:59;9.43;;;8.38;;
59105;SDS011;44891;50.204;8.132;2022-08-19T14:16:05;11.00;;;8.93;;
59105;SDS011;44891;50.204;8.132;2022-08-19T14:20:09;9.57;;;8.75;;
59105;SDS011;44891;50.204;8.132;2022-08-19T14:24:14;9.48;;;8.55;;
59105;SDS011;44891;50.204;8.132;2022-08-19T14:28:16;9.95;;;8.40;;
59105;SDS011;44891;50.204;8.132;2022-08-19T14:32:18;9.25;;;8.38;;
59105;SDS011;44891;50.204;8.132;2022-08-19T14:36:21;9.50;;;8.52;;
59105;SDS011;44891;50.204;8.132;2022-08-19T14:40:26;8.75;;;7.95;;
59105;SDS011;44891;50.204;8.132;2022-08-19T14:44:30;8.00;;;7.30;;
59105;SDS011;44891;50.204;8.132;2022-08-19T14:48:34;10.05;;;8.95;;
59105;SDS011;44891;50.204;8.132;2022-08-19T14:52:37;8.77;;;7.97;;
59105;SDS011;44891;50.204;8.132;2022-08-19T14:56:41;8.93;;;8.13;;
59105;SDS011;44891;50.204;8.132;2022-08-19T15:00:43;8.48;;;7.68;;
59105;SDS011;44891;50.204;8.132;2022-08-19T15:04:46;8.68;;;7.88;;
59105;SDS011;44891;50.204;8.132;2022-08-19T15:08:48;9.10;;;8.20;;
59105;SDS011;44891;50.204;8.132;2022-08-19T15:12:53;9.55;;;8.65;;
59105;SDS011;44891;50.204;8.132;2022-08-19T15:16:55;9.35;;;8.35;;
59105;SDS011;44891;50.204;8.132;2022-08-19T15:20:57;8.77;;;7.97;;
59105;SDS011;44891;50.204;8.132;2022-08-19T15:24:59;8.88;;;7.75;;
59105;SDS011;44891;50.204;8.132;2022-08-19T15:29:03;8.05;;;7.35;;
59105;SDS011;44891;50.204;8.132;2022-08-19T15:33:06;8.63;;;7.78;;
59105;SDS011;44891;50.204;8.132;2022-08-19T15:37:08;8.35;;;7.65;;
59105;SDS011;44891;50.204;8.132;2022-08-19T15:41:15;8.60;;;7.63;;
59105;SDS011;44891;50.204;8.132;2022-08-19T15:45:27;8.75;;;7.90;;
59105;SDS011;44891;50.204;8.132;2022-08-19T15:49:32;9.07;;;8.27;;
59105;SDS011;44891;50.204;8.132;2022-08-19T15:53:34;8.75;;;8.00;;
59105;SDS011;44891;50.204;8.132;2022-08-19T15:57:36;9.40;;;8.35;;
59105;SDS011;44891;50.204;8.132;2022-08-19T16:01:57;8.77;;;8.07;;
59105;SDS011;44891;50.204;8.132;2022-08-19T16:06:17;8.57;;;7.78;;
59105;SDS011;44891;50.204;8.132;2022-08-19T16:10:29;8.90;;;8.00;;
59105;SDS011;44891;50.204;8.132;2022-08-19T16:14:33;8.95;;;8.05;;
59105;SDS011;44891;50.204;8.132;2022-08-19T16:18:40;8.82;;;8.13;;
59105;SDS011;44891;50.204;8.132;2022-08-19T16:22:42;8.75;;;7.93;;
59105;SDS011;44891;50.204;8.132;2022-08-19T16:26:44;8.90;;;8.10;;
59105;SDS011;44891;50.204;8.132;2022-08-19T16:30:47;9.65;;;8.75;;
59105;SDS011;44891;50.204;8.132;2022-08-19T16:34:51;9.07;;;8.27;;
59105;SDS011;44891;50.204;8.132;2022-08-19T16:38:53;10.07;;;8.40;;
59105;SDS011;44891;50.204;8.132;2022-08-19T16:42:56;11.52;;;8.20;;
59105;SDS011;44891;50.204;8.132;2022-08-19T16:46:58;8.68;;;7.88;;
59105;SDS011;44891;50.204;8.132;2022-08-19T16:51:02;10.35;;;8.20;;
59105;SDS011;44891;50.204;8.132;2022-08-19T16:55:08;9.18;;;7.80;;
59105;SDS011;44891;50.204;8.132;2022-08-19T16:59:10;9.60;;;7.38;;
59105;SDS011;44891;50.204;8.132;2022-08-19T17:03:13;10.60;;;8.15;;
59105;SDS011;44891;50.204;8.132;2022-08-19T17:07:16;9.07;;;8.10;;
59105;SDS011;44891;50.204;8.132;2022-08-19T17:11:19;8.85;;;7.97;;
59105;SDS011;44891;50.204;8.132;2022-08-19T17:15:22;10.23;;;8.68;;
59105;SDS011;44891;50.204;8.132;2022-08-19T17:19:25;9.82;;;8.82;;
59105;SDS011;44891;50.204;8.132;2022-08-19T17:23:29;9.57;;;8.60;;
59105;SDS011;44891;50.204;8.132;2022-08-19T17:27:31;10.35;;;8.55;;
59105;SDS011;44891;50.204;8.132;2022-08-19T17:31:34;10.02;;;8.55;;
59105;SDS011;44891;50.204;8.132;2022-08-19T17:35:37;9.05;;;8.23;;
59105;SDS011;44891;50.204;8.132;2022-08-19T17:39:44;11.00;;;8.93;;
59105;SDS011;44891;50.204;8.132;2022-08-19T17:43:46;9.55;;;8.55;;
59105;SDS011;44891;50.204;8.132;2022-08-19T17:47:48;10.43;;;8.38;;
59105;SDS011;44891;50.204;8.132;2022-08-19T17:51:51;10.80;;;8.82;;
59105;SDS011;44891;50.204;8.132;2022-08-19T17:55:54;9.43;;;8.23;;
59105;SDS011;44891;50.204;8.132;2022-08-19T17:59:56;9.15;;;8.15;;
59105;SDS011;44891;50.204;8.132;2022-08-19T18:03:59;9.15;;;8.15;;
59105;SDS011;44891;50.204;8.132;2022-08-19T18:08:01;10.05;;;8.10;;
59105;SDS011;44891;50.204;8.132;2022-08-19T18:12:08;9.27;;;7.75;;
59105;SDS011;44891;50.204;8.132;2022-08-19T18:16:10;9.23;;;8.00;;
59105;SDS011;44891;50.204;8.132;2022-08-19T18:20:13;11.50;;;8.80;;
59105;SDS011;44891;50.204;8.132;2022-08-19T18:24:17;10.45;;;8.68;;
59105;SDS011;44891;50.204;8.132;2022-08-19T18:28:21;11.90;;;9.13;;
59105;SDS011;44891;50.204;8.132;2022-08-19T18:32:25;10.88;;;9.00;;
59105;SDS011;44891;50.204;8.132;2022-08-19T18:36:28;10.95;;;8.95;;
59105;SDS011;44891;50.204;8.132;2022-08-19T18:40:30;10.70;;;8.45;;
59105;SDS011;44891;50.204;8.132;2022-08-19T18:44:51;11.15;;;8.57;;
59105;SDS011;44891;50.204;8.132;2022-08-19T18:49:12;10.27;;;8.40;;
59105;SDS011;44891;50.204;8.132;2022-08-19T18:53:17;13.98;;;8.65;;
59105;SDS011;44891;50.204;8.132;2022-08-19T18:57:19;13.52;;;9.18;;
59105;SDS011;44891;50.204;8.132;2022-08-19T19:01:26;12.18;;;9.30;;
59105;SDS011;44891;50.204;8.132;2022-08-19T19:05:30;12.13;;;8.82;;
59105;SDS011;44891;50.204;8.132;2022-08-19T19:09:33;13.25;;;9.50;;
59105;SDS011;44891;50.204;8.132;2022-08-19T19:13:36;12.68;;;8.57;;
59105;SDS011;44891;50.204;8.132;2022-08-19T19:17:41;12.40;;;8.85;;
59105;SDS011;44891;50.204;8.132;2022-08-19T19:21:45;12.75;;;8.85;;
59105;SDS011;44891;50.204;8.132;2022-08-19T19:25:49;11.90;;;8.38;;
59105;SDS011;44891;50.204;8.132;2022-08-19T19:29:51;10.38;;;8.23;;
59105;SDS011;44891;50.204;8.132;2022-08-19T19:33:55;9.05;;;7.47;;
59105;SDS011;44891;50.204;8.132;2022-08-19T19:37:57;12.15;;;8.32;;
59105;SDS011;44891;50.204;8.132;2022-08-19T19:42:04;12.13;;;8.82;;
59105;SDS011;44891;50.204;8.132;2022-08-19T19:46:09;15.45;;;9.13;;
59105;SDS011;44891;50.204;8.132;2022-08-19T19:50:14;12.30;;;8.82;;
59105;SDS011;44891;50.204;8.132;2022-08-19T19:54:17;10.32;;;9.25;;
59105;SDS011;44891;50.204;8.132;2022-08-19T19:58:20;11.43;;;8.85;;
59105;SDS011;44891;50.204;8.132;2022-08-19T20:02:22;12.82;;;9.88;;
59105;SDS011;44891;50.204;8.132;2022-08-19T20:06:27;12.27;;;9.55;;
59105;SDS011;44891;50.204;8.132;2022-08-19T20:10:29;11.95;;;9.27;;
59105;SDS011;44891;50.204;8.132;2022-08-19T20:14:32;9.75;;;8.55;;
59105;SDS011;44891;50.204;8.132;2022-08-19T20:18:36;11.80;;;8.77;;
59105;SDS011;44891;50.204;8.132;2022-08-19T20:22:40;12.45;;;8.95;;
59105;SDS011;44891;50.204;8.132;2022-08-19T20:26:43;10.10;;;8.57;;
59105;SDS011;44891;50.204;8.132;2022-08-19T20:30:47;11.40;;;8.15;;
59105;SDS011;44891;50.204;8.132;2022-08-19T20:34:49;11.15;;;8.60;;
59105;SDS011;44891;50.204;8.132;2022-08-19T20:38:52;10.55;;;7.93;;
59105;SDS011;44891;50.204;8.132;2022-08-19T20:42:54;11.65;;;8.38;;
59105;SDS011;44891;50.204;8.132;2022-08-19T20:46:57;9.90;;;7.93;;
59105;SDS011;44891;50.204;8.132;2022-08-19T20:50:59;9.20;;;7.35;;
59105;SDS011;44891;50.204;8.132;2022-08-19T20:55:03;10.63;;;7.50;;
59105;SDS011;44891;50.204;8.132;2022-08-19T20:59:06;9.73;;;7.95;;
59105;SDS011;44891;50.204;8.132;2022-08-19T21:03:10;10.60;;;7.78;;
59105;SDS011;44891;50.204;8.132;2022-08-19T21:07:14;14.10;;;8.75;;
59105;SDS011;44891;50.204;8.132;2022-08-19T21:11:18;12.13;;;8.13;;
59105;SDS011;44891;50.204;8.132;2022-08-19T21:15:20;12.15;;;8.85;;
59105;SDS011;44891;50.204;8.132;2022-08-19T21:19:24;12.48;;;9.10;;
59105;SDS011;44891;50.204;8.132;2022-08-19T21:23:27;9.85;;;8.45;;
59105;SDS011;44891;50.204;8.132;2022-08-19T21:27:31;10.98;;;8.98;;
59105;SDS011;44891;50.204;8.132;2022-08-19T21:31:33;10.63;;;8.35;;
59105;SDS011;44891;50.204;8.132;2022-08-19T21:35:35;11.85;;;9.00;;
59105;SDS011;44891;50.204;8.132;2022-08-19T21:39:37;12.10;;;8.65;;
59105;SDS011;44891;50.204;8.132;2022-08-19T21:43:41;9.95;;;8.23;;
59105;SDS011;44891;50.204;8.132;2022-08-19T21:47:43;12.73;;;8.60;;
59105;SDS011;44891;50.204;8.132;2022-08-19T21:51:45;10.93;;;8.63;;
59105;SDS011;44891;50.204;8.132;2022-08-19T21:55:47;10.20;;;8.57;;
59105;SDS011;44891;50.204;8.132;2022-08-19T21:59:51;9.27;;;7.82;;
59105;SDS011;44891;50.204;8.132;2022-08-19T22:03:53;10.88;;;8.32;;
59105;SDS011;44891;50.204;8.132;2022-08-19T22:07:56;10.82;;;8.00;;
59105;SDS011;44891;50.204;8.132;2022-08-19T22:11:59;10.45;;;8.60;;
59105;SDS011;44891;50.204;8.132;2022-08-19T22:16:03;9.65;;;7.97;;
59105;SDS011;44891;50.204;8.132;2022-08-19T22:20:07;10.55;;;7.82;;
59105;SDS011;44891;50.204;8.132;2022-08-19T22:24:11;10.07;;;8.18;;
59105;SDS011;44891;50.204;8.132;2022-08-19T22:28:15;9.43;;;8.20;;
59105;SDS011;44891;50.204;8.132;2022-08-19T22:32:20;12.55;;;7.88;;
59105;SDS011;44891;50.204;8.132;2022-08-19T22:36:22;11.10;;;7.72;;
59105;SDS011;44891;50.204;8.132;2022-08-19T22:40:27;9.13;;;7.20;;
59105;SDS011;44891;50.204;8.132;2022-08-19T22:44:30;7.90;;;7.00;;
59105;SDS011;44891;50.204;8.132;2022-08-19T22:48:34;9.80;;;7.50;;
59105;SDS011;44891;50.204;8.132;2022-08-19T22:52:36;9.88;;;7.43;;
59105;SDS011;44891;50.204;8.132;2022-08-19T22:56:38;10.30;;;7.32;;
59105;SDS011;44891;50.204;8.132;2022-08-19T23:00:40;8.63;;;7.57;;
59105;SDS011;44891;50.204;8.132;2022-08-19T23:04:44;11.73;;;7.90;;
59105;SDS011;44891;50.204;8.132;2022-08-19T23:08:46;9.52;;;7.45;;
59105;SDS011;44891;50.204;8.132;2022-08-19T23:12:48;8.77;;;6.70;;
59105;SDS011;44891;50.204;8.132;2022-08-19T23:16:51;9.60;;;7.13;;
59105;SDS011;44891;50.204;8.132;2022-08-19T23:20:54;8.38;;;6.63;;
59105;SDS011;44891;50.204;8.132;2022-08-19T23:25:00;8.68;;;6.85;;
59105;SDS011;44891;50.204;8.132;2022-08-19T23:29:03;11.35;;;7.40;;
59105;SDS011;44891;50.204;8.132;2022-08-19T23:33:24;8.57;;;6.93;;
59105;SDS011;44891;50.204;8.132;2022-08-19T23:37:29;7.90;;;7.10;;
59105;SDS011;44891;50.204;8.132;2022-08-19T23:41:31;8.80;;;6.32;;
59105;SDS011;44891;50.204;8.132;2022-08-19T23:45:35;7.55;;;5.95;;
59105;SDS011;44891;50.204;8.132;2022-08-19T23:49:38;7.47;;;6.40;;
59105;SDS011;44891;50.204;8.132;2022-08-19T23:53:43;7.22;;;5.70;;
59105;SDS011;44891;50.204;8.132;2022-08-19T23:57:45;6.45;;;5.03;;
